createdAt,value
2018-10-21T00:01:43.582Z,7.47
2018-10-21T00:07:06.103Z,6.70
2018-10-21T00:13:31.022Z,7.20
2018-10-21T00:18:53.410Z,6.97
2018-10-21T00:24:15.370Z,6.90
2018-10-21T00:29:36.953Z,7.47
2018-10-21T00:34:59.046Z,6.93
2018-10-21T00:40:21.185Z,7.47
2018-10-21T00:45:43.173Z,7.60
2018-10-21T00:51:05.003Z,8.67
2018-10-21T00:56:27.175Z,8.87
2018-10-21T01:01:48.954Z,8.70
2018-10-21T01:07:11.044Z,8.23
2018-10-21T01:12:33.066Z,9.30
2018-10-21T01:17:55.234Z,8.93
2018-10-21T01:23:17.187Z,9.00
2018-10-21T01:28:39.340Z,9.73
2018-10-21T01:34:01.255Z,9.50
2018-10-21T01:40:33.222Z,10.80
2018-10-21T01:45:55.682Z,11.47
2018-10-21T01:51:17.726Z,10.60
2018-10-21T01:56:39.934Z,11.77
2018-10-21T02:02:01.645Z,10.63
2018-10-21T02:07:23.701Z,11.20
2018-10-21T02:12:45.504Z,11.97
2018-10-21T02:18:07.953Z,13.37
2018-10-21T02:23:29.701Z,12.50
2018-10-21T02:28:51.791Z,13.40
2018-10-21T02:34:13.574Z,13.07
2018-10-21T02:39:36.465Z,14.67
2018-10-21T02:44:58.578Z,14.57
2018-10-21T02:50:21.082Z,13.87
2018-10-21T02:55:43.039Z,15.03
2018-10-21T03:01:04.823Z,15.53
2018-10-21T03:06:26.835Z,15.00
2018-10-21T03:11:48.735Z,14.90
2018-10-21T03:17:10.915Z,13.63
2018-10-21T03:22:32.960Z,14.97
2018-10-21T03:27:54.986Z,15.13
2018-10-21T03:33:17.007Z,15.27
2018-10-21T03:38:39.050Z,14.70
2018-10-21T03:44:00.938Z,14.27
2018-10-21T03:49:23.011Z,14.30
2018-10-21T03:54:48.513Z,14.87
2018-10-21T04:00:10.806Z,15.53
2018-10-21T04:05:33.222Z,16.30
2018-10-21T04:10:56.267Z,16.50
2018-10-21T04:16:18.203Z,14.93
2018-10-21T04:21:40.220Z,15.80
2018-10-21T04:27:03.250Z,17.60
2018-10-21T04:32:25.102Z,17.17
2018-10-21T04:40:01.079Z,17.40
2018-10-21T04:45:23.533Z,16.60
2018-10-21T04:50:45.614Z,16.90
2018-10-21T04:56:07.789Z,18.27
2018-10-21T05:01:29.757Z,18.27
2018-10-21T05:06:51.871Z,16.07
2018-10-21T05:12:13.756Z,15.80
2018-10-21T05:17:35.999Z,17.47
2018-10-21T05:22:58.063Z,17.33
2018-10-21T05:28:20.150Z,18.67
2018-10-21T05:33:47.640Z,17.77
2018-10-21T05:39:11.375Z,17.80
2018-10-21T05:44:33.315Z,18.97
2018-10-21T05:49:55.050Z,18.27
2018-10-21T05:55:17.386Z,20.20
2018-10-21T06:00:39.138Z,18.27
2018-10-21T06:06:01.713Z,18.93
2018-10-21T06:11:24.011Z,19.50
2018-10-21T06:16:48.644Z,20.00
2018-10-21T06:22:10.481Z,20.97
2018-10-21T06:27:32.536Z,20.03
2018-10-21T06:32:54.519Z,22.00
2018-10-21T06:38:16.670Z,21.87
2018-10-21T06:43:38.616Z,21.33
2018-10-21T06:49:00.989Z,21.63
2018-10-21T06:54:22.910Z,21.00
2018-10-21T06:59:45.333Z,21.17
2018-10-21T07:05:12.815Z,20.17
2018-10-21T07:10:35.178Z,20.87
2018-10-21T07:15:57.329Z,21.93
2018-10-21T07:21:19.865Z,22.43
2018-10-21T07:26:42.067Z,19.83
2018-10-21T07:32:03.938Z,20.13
2018-10-21T07:37:26.170Z,20.17
2018-10-21T07:42:48.353Z,21.63
2018-10-21T07:48:10.546Z,21.17
2018-10-21T07:53:32.426Z,23.37
2018-10-21T07:58:54.462Z,22.83
2018-10-21T08:04:16.707Z,23.03
2018-10-21T08:09:38.685Z,21.60
2018-10-21T08:15:01.006Z,22.10
2018-10-21T08:20:22.910Z,22.10
2018-10-21T08:25:47.550Z,20.87
2018-10-21T08:31:09.270Z,20.77
2018-10-21T08:36:31.506Z,22.83
2018-10-21T08:41:53.632Z,19.97
2018-10-21T08:47:15.891Z,22.10
2018-10-21T08:52:37.800Z,21.90
2018-10-21T08:58:00.038Z,21.43
2018-10-21T09:03:24.294Z,21.13
2018-10-21T09:08:46.294Z,20.70
2018-10-21T09:14:08.549Z,20.60
2018-10-21T09:19:30.654Z,21.17
2018-10-21T09:24:52.758Z,20.37
2018-10-21T09:30:17.351Z,19.90
2018-10-21T09:35:39.172Z,19.17
2018-10-21T09:41:01.250Z,20.83
2018-10-21T09:46:23.151Z,21.83
2018-10-21T09:51:44.958Z,22.13
2018-10-21T09:57:07.423Z,20.43
2018-10-21T10:02:34.530Z,20.17
2018-10-21T10:07:56.885Z,20.67
2018-10-21T10:13:19.022Z,22.30
2018-10-21T10:18:41.258Z,21.20
2018-10-21T10:24:04.629Z,18.33
2018-10-21T10:29:27.575Z,18.17
2018-10-21T10:34:50.549Z,19.90
2018-10-21T10:40:13.664Z,18.13
2018-10-21T10:45:36.278Z,19.27
2018-10-21T10:50:59.009Z,20.50
2018-10-21T10:56:21.115Z,17.23
2018-10-21T11:01:42.887Z,17.17
2018-10-21T11:07:04.706Z,14.50
2018-10-21T11:12:26.838Z,16.90
2018-10-21T11:17:49.000Z,18.70
2018-10-21T11:23:11.374Z,17.07
2018-10-21T11:28:33.655Z,16.63
2018-10-21T11:33:55.595Z,16.83
2018-10-21T11:39:17.861Z,17.27
2018-10-21T11:44:39.711Z,13.77
2018-10-21T11:50:01.863Z,14.47
2018-10-21T11:55:23.794Z,11.47
2018-10-21T12:00:47.295Z,10.57
2018-10-21T12:06:09.467Z,9.03
2018-10-21T12:11:31.769Z,7.63
2018-10-21T12:16:53.578Z,7.37
2018-10-21T12:22:15.914Z,5.40
2018-10-21T12:27:37.704Z,5.30
2018-10-21T12:33:00.054Z,4.63
2018-10-21T12:38:21.936Z,4.50
2018-10-21T12:43:44.103Z,4.90
2018-10-21T12:49:06.066Z,3.40
2018-10-21T12:54:28.041Z,3.57
2018-10-21T12:59:50.033Z,4.33
2018-10-21T13:05:12.240Z,10.50
2018-10-21T13:10:34.067Z,15.77
2018-10-21T13:15:56.440Z,16.67
2018-10-21T13:21:18.070Z,17.23
2018-10-21T13:26:40.298Z,15.53
2018-10-21T13:32:03.725Z,16.07
2018-10-21T13:37:26.125Z,17.47
2018-10-21T13:42:48.120Z,19.27
2018-10-21T13:48:10.319Z,15.43
2018-10-21T13:53:32.115Z,17.27
2018-10-21T13:58:54.236Z,18.03
2018-10-21T14:04:16.180Z,12.67
2018-10-21T14:09:38.813Z,18.07
2018-10-21T14:15:01.599Z,17.30
2018-10-21T14:20:23.942Z,17.63
2018-10-21T14:25:45.802Z,13.83
2018-10-21T14:31:07.860Z,11.43
2018-10-21T14:36:29.782Z,13.53
2018-10-21T14:41:52.196Z,9.37
2018-10-21T14:47:14.068Z,8.37
2018-10-21T14:52:36.581Z,12.60
2018-10-21T14:57:58.821Z,10.20
2018-10-21T15:03:20.609Z,12.03
2018-10-21T15:08:42.341Z,15.50
2018-10-21T15:14:05.295Z,14.80
2018-10-21T15:19:27.217Z,15.57
2018-10-21T15:24:49.175Z,11.97
2018-10-21T15:30:12.328Z,14.40
2018-10-21T15:35:34.326Z,11.07
2018-10-21T15:40:56.234Z,8.73
2018-10-21T15:46:18.740Z,9.83
2018-10-21T15:51:40.990Z,8.50
2018-10-21T15:57:02.746Z,10.60
2018-10-21T16:02:25.231Z,9.83
2018-10-21T16:07:48.034Z,2.23
2018-10-21T16:13:11.034Z,2.30
2018-10-21T16:18:33.605Z,1.50
2018-10-21T16:23:55.753Z,1.60
2018-10-21T16:29:17.894Z,2.10
2018-10-21T16:34:40.286Z,1.70
2018-10-21T16:40:02.063Z,1.93
2018-10-21T16:45:24.181Z,2.17
2018-10-21T16:50:46.323Z,1.73
2018-10-21T16:56:08.545Z,1.93
2018-10-21T17:01:30.553Z,1.63
2018-10-21T17:06:52.702Z,1.77
2018-10-21T17:12:14.573Z,1.83
2018-10-21T17:17:36.758Z,1.97
2018-10-21T17:22:58.757Z,1.90
2018-10-21T17:28:20.886Z,1.80
2018-10-21T17:33:42.671Z,2.00
2018-10-21T17:39:05.806Z,2.20
2018-10-21T17:44:27.762Z,2.57
2018-10-21T17:49:49.497Z,1.90
2018-10-21T17:55:11.861Z,2.40
2018-10-21T18:00:33.837Z,2.70
2018-10-21T18:05:56.047Z,2.20
2018-10-21T18:11:17.991Z,3.00
2018-10-21T18:16:40.004Z,2.33
2018-10-21T18:22:01.791Z,2.90
2018-10-21T18:27:24.489Z,3.07
2018-10-21T18:32:46.740Z,2.90
2018-10-21T18:38:09.116Z,3.07
2018-10-21T18:43:31.380Z,5.70
2018-10-21T18:48:53.692Z,3.97
2018-10-21T18:54:15.666Z,2.97
2018-10-21T18:59:38.293Z,3.57
2018-10-21T19:05:00.000Z,3.80
2018-10-21T19:10:22.105Z,3.53
2018-10-21T19:15:44.403Z,2.97
2018-10-21T19:21:06.356Z,3.27
2018-10-21T19:26:28.188Z,3.57
2018-10-21T19:31:51.049Z,4.40
2018-10-21T19:37:13.190Z,4.07
2018-10-21T19:42:35.431Z,3.80
2018-10-21T19:47:57.295Z,4.60
2018-10-21T19:53:19.396Z,3.53
2018-10-21T19:58:41.385Z,4.20
2018-10-21T20:04:04.671Z,4.50
2018-10-21T20:09:26.542Z,5.00
2018-10-21T20:14:48.488Z,5.10
2018-10-21T20:20:11.472Z,5.67
2018-10-21T20:25:33.618Z,5.87
2018-10-21T20:30:55.568Z,5.70
2018-10-21T20:36:17.956Z,5.30
2018-10-21T20:41:40.303Z,6.97
2018-10-21T20:47:02.350Z,6.83
2018-10-21T20:52:24.582Z,8.23
2018-10-21T20:57:46.700Z,9.00
2018-10-21T21:03:09.492Z,9.00
2018-10-21T21:08:31.418Z,9.63
2018-10-21T21:13:53.377Z,10.10
2018-10-21T21:19:15.283Z,9.47
2018-10-21T21:24:39.632Z,10.47
2018-10-21T21:30:05.217Z,10.83
2018-10-21T21:35:27.187Z,10.97
2018-10-21T21:40:49.647Z,9.27
2018-10-21T21:46:11.627Z,9.43
2018-10-21T21:51:33.726Z,9.73
2018-10-21T21:56:55.607Z,9.23
2018-10-21T22:02:17.770Z,9.43
2018-10-21T22:07:40.792Z,9.63
2018-10-21T22:13:03.082Z,8.80
2018-10-21T22:18:25.690Z,8.83
2018-10-21T22:23:48.637Z,9.83
2018-10-21T22:29:10.888Z,9.90
2018-10-21T22:34:32.832Z,9.93
2018-10-21T22:39:54.966Z,10.50
2018-10-21T22:45:17.120Z,11.10
2018-10-21T22:50:39.146Z,11.73
2018-10-21T22:56:00.951Z,12.00
2018-10-21T23:01:23.168Z,11.73
2018-10-21T23:06:45.051Z,12.57
2018-10-21T23:12:07.683Z,12.13
2018-10-21T23:17:29.910Z,11.83
2018-10-21T23:22:51.804Z,10.67
2018-10-21T23:28:13.478Z,10.87
2018-10-21T23:33:35.553Z,11.93
2018-10-21T23:38:57.441Z,11.50
2018-10-21T23:44:19.719Z,12.53
2018-10-21T23:49:41.526Z,12.60
2018-10-21T23:55:03.627Z,13.23
